Decoded Metar for LEST (SANTIAGO in SPAIN) (IATA:SCQ) | Meteo·Mobile Aviation Weather
aviador You're here:

LEST Decoded Metar

SANTIAGO in SPAIN
Report Time2019-05-19 23:00:00
UTC Time2019-05-19 23:12:39
Flight Rules vfr VFR
WindVRB at 02 kt
Visibility9999 m
Phenomena:N/A
Clouds:Few 020 Hf
Scattered 045 Hf
Expected CloudBase > 400 ft AGL from Temp-Dew spread
CeilingNone
Temp08°C (ISA -5)
Dew Point07°C (93% RH)
AAT6.6°C
QNH1016 hPa
Density Alt692 ft
Elevation1,204 ft
Report Wrong Elevation
Raw Report
LEST 192300Z VRB02KT 9999 FEW020 SCT045 08/07 Q1016 NOSIG=

Extra information for LEST:More info

Metar Taf Metar & Taf Last 4 Metars F.Rules Stats Wind Profile Meteogram Temp Stats Airport Information Weather charts Add Link Nearby VenuesMetar ALERT Operation Metar Decoded Social comments